Latest Coastal Weather Observations for Lady Elliot Island

IDQ60701

Issued at 12:02 am EST Monday 21 October 2019 (issued every 10 minutes, with the page automatically refreshed every 10 minutes)

About coastal observations | Map of coastal stations | Coastal observations for QLD | Marine services | Other Formats
Station Details ID: 039059 Name: LADY ELLIOT ISLAND Lat: -24.11 Lon: 152.72 Height: 3.6 m
Data from the previous 72 hours. | See also: Recent months at Lady Elliot Island
Date/Time
EST
Wind Sea
Height
m
Swell Vis
km
Cloud Weather Temp
°C
Press
hPa
Rain since
9am
mm
Dir  Spd
kts
Gust
kts
Height
m
Period
s
Dir
21/12:00am SSE 12 17 - - - - - - - 22.7 1018.9 0.0
 
Date/Time
EST
Wind Sea
Height
m
Swell Vis
km
Cloud Weather Temp
°C
Press
hPa
Rain since
9am
mm
Dir  Spd
kts
Gust
kts
Height
m
Period
s
Dir
20/11:30pm SE 14 19 - - - - - - - 22.8 1019.0 0.0
20/11:00pm SE 14 17 - - - - - - - 22.8 1019.3 0.0
20/10:30pm SE 12 16 - - - - - - - 22.8 1019.5 0.0
20/10:00pm SE 14 17 - - - - - - - 22.7 1019.1 0.0
20/09:30pm SE 13 18 - - - - - - - 22.8 1018.9 0.0
20/09:00pm ESE 15 20 - - - - - - - 22.8 1018.8 0.0
20/08:30pm ESE 16 20 - - - - - - - 22.8 1018.2 0.0
20/08:00pm ESE 16 21 - - - - - - - 22.9 1017.9 0.0
20/07:30pm ESE 17 22 - - - - - - - 23.0 1017.7 0.0
20/07:00pm ESE 18 22 - - - - - - - 23.1 1017.3 0.0
20/06:30pm ESE 19 23 - - - - - - - 23.1 1016.7 0.0
20/06:00pm ESE 18 22 - - - - - - - 23.2 1016.5 0.0
20/05:30pm ESE 16 22 - - - - - - - 23.6 1016.1 0.0
20/05:00pm ESE 13 16 - - - - - - - 24.4 1015.5 0.0
20/04:30pm E 9 11 - - - - - - - 24.8 1015.3 0.0
20/04:00pm NE 5 8 - - - - - - - 25.2 1014.9 0.0
20/03:30pm NNE 4 6 - - - - - - - 25.0 1014.8 0.0
20/03:00pm NE 4 5 - - - - - - - 25.8 1014.9 0.0
20/02:30pm WNW 4 8 - - - - - - - 26.1 1015.1 0.0
20/02:00pm S 6 8 - - - - - - - 26.0 1015.3 0.0
20/01:30pm SSW 7 8 - - - - - - - 25.5 1015.5 0.0
20/01:00pm S 6 8 - - - - - - - 25.1 1015.7 0.0
20/12:30pm S 7 8 - - - - - - - 25.7 1016.0 0.0
20/12:00pm S 7 9 - - - - - - - 25.5 1016.2 0.0
20/11:30am S 7 9 - - - - - - - 25.3 1016.5 0.0
20/11:00am SSW 8 10 - - - - - - - 25.1 1016.7 0.0
20/10:30am W 6 8 - - - - - - - 25.6 1017.0 0.0
20/10:00am WNW 7 9 - - - - - - - 24.7 1017.1 0.0
20/09:30am WNW 7 9 - - - - - - - 25.1 1017.2 0.0
20/09:00am WNW 8 10 - - - - - - - 25.1 1017.2 3.0
20/08:30am WNW 7 9 - - - - - - - 24.9 1017.1 3.0
20/08:00am NW 6 8 - - - - - - - 24.7 1017.1 3.0
20/07:30am NW 6 9 - - - - - - - 23.7 1017.0 3.0
20/07:00am NW 6 9 - - - - - - - 23.6 1016.7 3.0
20/06:30am NW 5 8 - - - - - - - 23.4 1016.4 3.0
20/06:00am NW 6 9 - - - - - - - 23.2 1016.1 3.0
20/05:30am NNW 6 9 - - - - - - - 22.9 1015.8 3.0
20/05:00am NW 6 9 - - - - - - - 22.8 1015.6 3.0
20/04:30am NW 7 11 - - - - - - - 22.9 1015.3 3.0
20/04:00am NW 8 11 - - - - - - - 22.8 1015.2 3.0
20/03:30am NW 9 12 - - - - - - - 22.9 1015.1 3.0
20/03:00am NW 8 12 - - - - - - - 22.7 1015.2 3.0
20/02:30am NW 8 11 - - - - - - - 22.8 1015.3 3.0
20/02:00am NW 8 12 - - - - - - - 22.7 1015.5 3.0
20/01:30am NW 7 9 - - - - - - - 22.7 1015.8 3.0
20/01:00am NNW 9 12 - - - - - - - 22.7 1015.9 3.0
20/12:30am NNW 13 17 - - - - - - - 22.6 1015.9 3.0
20/12:00am N 16 20 - - - - - - Recent precip. 22.5 1015.9 3.0
 
Date/Time
EST
Wind Sea
Height
m
Swell Vis
km
Cloud Weather Temp
°C
Press
hPa
Rain since
9am
mm
Dir  Spd
kts
Gust
kts
Height
m
Period
s
Dir
19/11:30pm NNW 11 17 - - - - - - - 22.4 1016.4 2.0
19/11:00pm NW 5 7 - - - - - - - 23.4 1017.5 0.0
19/10:30pm N 17 20 - - - - - - - 23.2 1016.0 0.0
19/10:00pm N 17 20 - - - - - - - 23.4 1016.0 0.0
19/09:30pm N 16 20 - - - - - - - 23.3 1015.6 0.0
19/09:00pm N 16 21 - - - - - - - 23.3 1015.3 0.0
19/08:30pm N 13 19 - - - - - - - 23.3 1015.5 0.0
19/08:00pm N 14 19 - - - - - - - 23.4 1015.5 0.0
19/07:30pm N 15 19 - - - - - - - 23.4 1015.5 0.0
19/07:00pm N 13 19 - - - - - - - 23.5 1015.3 0.0
19/06:30pm N 13 18 - - - - - - - 23.5 1014.5 0.0
19/06:00pm N 13 18 - - - - - - - 23.6 1014.2 0.0
19/05:30pm N 15 20 - - - - - - - 23.9 1014.1 0.0
19/05:00pm N 14 19 - - - - - - - 24.3 1014.1 0.0
19/04:30pm N 14 18 - - - - - - - 24.7 1014.0 0.0
19/04:00pm N 15 19 - - - - - - - 25.4 1014.2 0.0
19/03:30pm N 14 17 - - - - - - - 25.1 1014.4 0.0
19/03:00pm N 15 17 - - - - - - - 25.3 1014.8 0.0
19/02:30pm N 15 17 - - - - - - - 25.6 1015.2 0.0
19/02:00pm NNW 12 15 - - - - - - - 25.7 1015.6 0.0
19/01:30pm NNW 13 15 - - - - - - - 25.9 1016.0 0.0
19/01:00pm NNW 13 15 - - - - - - - 26.2 1016.4 0.0
19/12:30pm N 13 15 - - - - - - - 26.5 1016.6 0.0
19/12:00pm N 14 16 - - - - - - - 26.6 1017.2 0.0
19/11:30am N 14 15 - - - - - - - 26.6 1017.3 0.0
19/11:00am N 13 15 - - - - - - - 27.3 1017.6 0.0
19/10:30am N 14 16 - - - - - - - 26.9 1017.8 0.0
19/10:00am N 14 17 - - - - - - - 26.7 1018.0 0.0
19/09:30am NNW 13 15 - - - - - - - 26.1 1018.4 0.0
19/09:00am N 13 15 - - - - - - - 25.5 1018.3 0.0
19/08:30am N 11 12 - - - - - - - 25.5 1018.2 0.0
19/08:00am N 11 13 - - - - - - - 25.1 1018.2 0.0
19/07:30am N 11 14 - - - - - - - 24.1 1018.0 0.0
19/07:00am N 11 13 - - - - - - - 24.3 1017.8 0.0
19/06:30am N 10 11 - - - - - - - 23.5 1017.6 0.0
19/06:00am N 10 11 - - - - - - - 23.0 1017.2 0.0
19/05:30am N 8 11 - - - - - - - 22.8 1017.0 0.0
19/05:00am N 7 9 - - - - - - - 22.8 1016.8 0.0
19/04:30am N 8 11 - - - - - - - 22.9 1016.6 0.0
19/04:00am N 8 11 - - - - - - - 23.0 1016.3 0.0
19/03:30am N 6 9 - - - - - - - 23.2 1016.1 0.0
19/03:00am N 6 9 - - - - - - - 23.2 1015.9 0.0
19/02:30am N 5 9 - - - - - - - 23.2 1015.9 0.0
19/02:00am N 5 9 - - - - - - - 23.2 1016.0 0.0
19/01:30am NNE 5 8 - - - - - - - 23.2 1015.9 0.0
19/01:00am NNE 4 7 - - - - - - - 23.2 1015.7 0.0
19/12:30am N 6 10 - - - - - - - 23.2 1016.1 0.0
19/12:00am N 8 11 - - - - - - - 23.2 1016.5 0.0
 
Date/Time
EST
Wind Sea
Height
m
Swell Vis
km
Cloud Weather Temp
°C
Press
hPa
Rain since
9am
mm
Dir  Spd
kts
Gust
kts
Height
m
Period
s
Dir
18/11:30pm NNW 10 13 - - - - - - - 23.3 1017.0 0.0
18/11:00pm NNW 9 13 - - - - - - - 23.6 1017.6 0.0
18/10:30pm NNW 11 13 - - - - - - - 23.6 1017.8 0.0
18/10:00pm N 11 14 - - - - - - - 23.4 1017.5 0.0
18/09:30pm N 10 14 - - - - - - - 23.5 1017.3 0.0
18/09:00pm N 11 16 - - - - - - - 23.5 1016.8 0.0
18/08:30pm N 13 18 - - - - - - - 23.4 1016.3 0.0
18/08:00pm N 9 17 - - - - - - - 23.3 1015.7 0.0
18/07:30pm N 8 13 - - - - - - - 23.4 1015.6 0.0
18/07:00pm N 9 15 - - - - - - - 23.5 1015.2 0.0
18/06:30pm N 9 14 - - - - - - - 23.5 1014.6 0.0
18/06:00pm N 8 11 - - - - - - - 23.6 1014.8 0.0
18/05:30pm N 5 8 - - - - - - - 24.1 1014.8 0.0
18/05:00pm N 7 11 - - - - - - - 24.6 1014.2 0.0
18/04:30pm N 7 10 - - - - - - - 25.2 1014.0 0.0
18/04:00pm N 7 11 - - - - - - - 25.7 1013.9 0.0
18/03:30pm N 8 11 - - - - - - - 25.8 1013.8 0.0
18/03:00pm N 10 11 - - - - - - - 26.3 1014.0 0.0
18/02:30pm N 10 11 - - - - - - - 26.5 1014.3 0.0
18/02:00pm NNW 10 13 - - - - - - - 26.3 1014.8 0.0
18/01:30pm N 12 14 - - - - - - - 26.8 1014.9 0.0
18/01:00pm NNW 12 16 - - - - - - - 26.5 1015.5 0.0
18/12:30pm NNW 13 16 - - - - - - - 26.2 1016.0 0.0
18/12:00pm NNW 11 14 - - - - - - - 26.2 1016.7 0.0
18/11:30am NNW 9 14 - - - - - - - 26.3 1017.0 0.0
18/11:00am NNW 9 13 - - - - - - - 27.0 1017.4 0.0
18/10:30am NNW 10 14 - - - - - - - 26.3 1017.5 0.0
18/10:00am NW 10 14 - - - - - - - 26.4 1017.8 0.0
18/09:30am NW 10 16 - - - - - - - 25.9 1017.9 0.0
18/09:00am NNW 10 14 - - - - - - - 25.5 1018.0 0.0
18/08:30am NW 9 13 - - - - - - - 25.2 1017.9 0.0
18/08:00am NW 8 12 - - - - - - - 24.6 1017.9 0.0
18/07:30am NW 9 14 - - - - - - - 24.2 1017.6 0.0
18/07:00am NW 11 16 - - - - - - - 24.1 1017.0 0.0
18/06:30am NW 11 16 - - - - - - - 23.5 1016.6 0.0
18/06:00am NNW 10 16 - - - - - - - 23.4 1016.3 0.0
18/05:30am NNW 11 17 - - - - - - - 23.2 1015.9 0.0
18/05:00am NNW 13 21 - - - - - - - 23.0 1015.4 0.0
18/04:30am NNW 13 21 - - - - - - - 22.9 1015.1 0.0
18/04:00am NNW 16 22 - - - - - - - 22.9 1014.4 0.0
18/03:30am NNW 18 23 - - - - - - - 22.9 1014.2 0.0
18/03:00am NNW 15 21 - - - - - - - 22.9 1014.3 0.0
18/02:30am NNW 17 23 - - - - - - - 23.1 1014.3 0.0
18/02:00am NNW 14 21 - - - - - - - 23.0 1014.4 0.0
18/01:30am NNW 19 23 - - - - - - - 23.1 1014.1 0.0
18/01:00am NNW 18 23 - - - - - - - 23.2 1014.8 0.0
18/12:30am N 19 23 - - - - - - - 23.2 1015.2 0.0

Other formats

Comma delimited format used in spreadsheet applications
http://www.bom.gov.au/fwo/IDQ60701/IDQ60701.94388.axf

JavaScript Object Notation format (JSON) in row-major order
http://www.bom.gov.au/fwo/IDQ60701/IDQ60701.94388.json

Data quality

Most of these data are generated automatically and are frequently updated. Quality checks on data are not normally performed. It is possible for incorrect values to appear. Refer to information at About Latest Weather Observations and please check the disclaimer before using these data.